sensor_id;sensor_type;location;lat;lon;timestamp;P1;durP1;ratioP1;P2;durP2;ratioP2
40649;SDS011;26342;42.826;23.992;2023-04-24T00:02:04;0.30;;;0.30;;
40649;SDS011;26342;42.826;23.992;2023-04-24T00:04:31;0.63;;;0.50;;
40649;SDS011;26342;42.826;23.992;2023-04-24T00:06:58;0.00;;;0.00;;
40649;SDS011;26342;42.826;23.992;2023-04-24T00:09:25;3.47;;;1.80;;
40649;SDS011;26342;42.826;23.992;2023-04-24T00:11:51;0.10;;;0.10;;
40649;SDS011;26342;42.826;23.992;2023-04-24T00:14:17;1.35;;;0.95;;
40649;SDS011;26342;42.826;23.992;2023-04-24T00:16:44;1.65;;;0.40;;
40649;SDS011;26342;42.826;23.992;2023-04-24T00:19:09;2.20;;;0.75;;
40649;SDS011;26342;42.826;23.992;2023-04-24T00:21:36;0.40;;;0.40;;
40649;SDS011;26342;42.826;23.992;2023-04-24T00:24:01;0.40;;;0.40;;
40649;SDS011;26342;42.826;23.992;2023-04-24T00:26:27;1.58;;;1.17;;
40649;SDS011;26342;42.826;23.992;2023-04-24T00:28:52;0.30;;;0.30;;
40649;SDS011;26342;42.826;23.992;2023-04-24T00:31:17;0.40;;;0.40;;
40649;SDS011;26342;42.826;23.992;2023-04-24T00:33:44;1.38;;;0.68;;
40649;SDS011;26342;42.826;23.992;2023-04-24T00:36:09;0.32;;;0.32;;
40649;SDS011;26342;42.826;23.992;2023-04-24T00:38:35;0.68;;;0.50;;
40649;SDS011;26342;42.826;23.992;2023-04-24T00:41:01;0.20;;;0.20;;
40649;SDS011;26342;42.826;23.992;2023-04-24T00:43:27;1.38;;;1.00;;
40649;SDS011;26342;42.826;23.992;2023-04-24T00:45:52;0.88;;;0.60;;
40649;SDS011;26342;42.826;23.992;2023-04-24T00:48:21;0.40;;;0.40;;
40649;SDS011;26342;42.826;23.992;2023-04-24T00:50:48;0.40;;;0.28;;
40649;SDS011;26342;42.826;23.992;2023-04-24T00:53:14;0.65;;;0.22;;
40649;SDS011;26342;42.826;23.992;2023-04-24T00:55:39;0.73;;;0.73;;
40649;SDS011;26342;42.826;23.992;2023-04-24T00:58:05;1.10;;;1.05;;
40649;SDS011;26342;42.826;23.992;2023-04-24T01:00:31;1.40;;;0.98;;
40649;SDS011;26342;42.826;23.992;2023-04-24T01:02:57;1.05;;;0.40;;
40649;SDS011;26342;42.826;23.992;2023-04-24T01:05:24;1.02;;;0.52;;
40649;SDS011;26342;42.826;23.992;2023-04-24T01:07:51;0.40;;;0.40;;
40649;SDS011;26342;42.826;23.992;2023-04-24T01:10:16;0.38;;;0.20;;
40649;SDS011;26342;42.826;23.992;2023-04-24T01:12:42;0.45;;;0.45;;
40649;SDS011;26342;42.826;23.992;2023-04-24T01:15:08;0.43;;;0.43;;
40649;SDS011;26342;42.826;23.992;2023-04-24T01:17:34;0.30;;;0.30;;
40649;SDS011;26342;42.826;23.992;2023-04-24T01:20:00;1.50;;;0.70;;
40649;SDS011;26342;42.826;23.992;2023-04-24T01:22:29;0.95;;;0.88;;
40649;SDS011;26342;42.826;23.992;2023-04-24T01:24:54;3.85;;;0.73;;
40649;SDS011;26342;42.826;23.992;2023-04-24T01:27:20;0.55;;;0.43;;
40649;SDS011;26342;42.826;23.992;2023-04-24T01:29:45;0.50;;;0.50;;
40649;SDS011;26342;42.826;23.992;2023-04-24T01:32:14;2.33;;;0.65;;
40649;SDS011;26342;42.826;23.992;2023-04-24T01:34:40;0.82;;;0.82;;
40649;SDS011;26342;42.826;23.992;2023-04-24T01:37:06;0.93;;;0.73;;
40649;SDS011;26342;42.826;23.992;2023-04-24T01:39:31;1.35;;;1.25;;
40649;SDS011;26342;42.826;23.992;2023-04-24T01:42:01;5.60;;;0.68;;
40649;SDS011;26342;42.826;23.992;2023-04-24T01:44:27;0.50;;;0.50;;
40649;SDS011;26342;42.826;23.992;2023-04-24T01:46:53;0.68;;;0.68;;
40649;SDS011;26342;42.826;23.992;2023-04-24T01:49:20;1.30;;;0.75;;
40649;SDS011;26342;42.826;23.992;2023-04-24T01:51:45;0.45;;;0.43;;
40649;SDS011;26342;42.826;23.992;2023-04-24T01:54:12;0.68;;;0.63;;
40649;SDS011;26342;42.826;23.992;2023-04-24T01:56:40;1.60;;;1.10;;
40649;SDS011;26342;42.826;23.992;2023-04-24T01:59:07;0.50;;;0.50;;
40649;SDS011;26342;42.826;23.992;2023-04-24T02:01:36;1.15;;;1.05;;
40649;SDS011;26342;42.826;23.992;2023-04-24T02:04:02;6.32;;;0.70;;
40649;SDS011;26342;42.826;23.992;2023-04-24T02:06:28;1.20;;;0.95;;
40649;SDS011;26342;42.826;23.992;2023-04-24T02:08:53;1.13;;;0.70;;
40649;SDS011;26342;42.826;23.992;2023-04-24T02:11:18;0.65;;;0.65;;
40649;SDS011;26342;42.826;23.992;2023-04-24T02:13:44;0.40;;;0.40;;
40649;SDS011;26342;42.826;23.992;2023-04-24T02:16:10;0.63;;;0.63;;
40649;SDS011;26342;42.826;23.992;2023-04-24T02:18:37;1.85;;;1.55;;
40649;SDS011;26342;42.826;23.992;2023-04-24T02:21:03;1.80;;;0.82;;
40649;SDS011;26342;42.826;23.992;2023-04-24T02:23:28;6.40;;;0.68;;
40649;SDS011;26342;42.826;23.992;2023-04-24T02:25:54;2.28;;;0.95;;
40649;SDS011;26342;42.826;23.992;2023-04-24T02:28:19;1.33;;;1.25;;
40649;SDS011;26342;42.826;23.992;2023-04-24T02:30:45;0.70;;;0.70;;
40649;SDS011;26342;42.826;23.992;2023-04-24T02:33:11;1.15;;;1.05;;
40649;SDS011;26342;42.826;23.992;2023-04-24T02:35:37;1.38;;;0.73;;
40649;SDS011;26342;42.826;23.992;2023-04-24T02:38:02;3.90;;;0.93;;
40649;SDS011;26342;42.826;23.992;2023-04-24T02:40:28;1.20;;;1.10;;
40649;SDS011;26342;42.826;23.992;2023-04-24T02:42:54;1.33;;;1.23;;
40649;SDS011;26342;42.826;23.992;2023-04-24T02:45:20;0.45;;;0.45;;
40649;SDS011;26342;42.826;23.992;2023-04-24T02:47:45;0.60;;;0.60;;
40649;SDS011;26342;42.826;23.992;2023-04-24T02:50:11;1.65;;;0.57;;
40649;SDS011;26342;42.826;23.992;2023-04-24T02:52:36;0.70;;;0.70;;
40649;SDS011;26342;42.826;23.992;2023-04-24T02:55:02;0.40;;;0.40;;
40649;SDS011;26342;42.826;23.992;2023-04-24T02:57:27;2.40;;;2.13;;
40649;SDS011;26342;42.826;23.992;2023-04-24T02:59:53;1.20;;;1.10;;
40649;SDS011;26342;42.826;23.992;2023-04-24T03:02:18;1.55;;;1.20;;
40649;SDS011;26342;42.826;23.992;2023-04-24T03:04:45;3.13;;;1.10;;
40649;SDS011;26342;42.826;23.992;2023-04-24T03:07:12;0.50;;;0.35;;
40649;SDS011;26342;42.826;23.992;2023-04-24T03:09:39;1.20;;;1.10;;
40649;SDS011;26342;42.826;23.992;2023-04-24T03:12:05;0.63;;;0.63;;
40649;SDS011;26342;42.826;23.992;2023-04-24T03:14:32;1.27;;;0.85;;
40649;SDS011;26342;42.826;23.992;2023-04-24T03:16:57;2.47;;;1.30;;
40649;SDS011;26342;42.826;23.992;2023-04-24T03:19:23;4.25;;;1.27;;
40649;SDS011;26342;42.826;23.992;2023-04-24T03:21:49;1.92;;;1.77;;
40649;SDS011;26342;42.826;23.992;2023-04-24T03:24:15;2.03;;;1.83;;
40649;SDS011;26342;42.826;23.992;2023-04-24T03:26:41;2.63;;;1.38;;
40649;SDS011;26342;42.826;23.992;2023-04-24T03:29:07;2.22;;;1.98;;
40649;SDS011;26342;42.826;23.992;2023-04-24T03:31:32;1.23;;;0.85;;
40649;SDS011;26342;42.826;23.992;2023-04-24T03:33:58;3.03;;;1.30;;
40649;SDS011;26342;42.826;23.992;2023-04-24T03:36:23;1.05;;;1.00;;
40649;SDS011;26342;42.826;23.992;2023-04-24T03:38:53;1.60;;;1.27;;
40649;SDS011;26342;42.826;23.992;2023-04-24T03:41:56;3.42;;;1.75;;
40649;SDS011;26342;42.826;23.992;2023-04-24T03:44:21;2.30;;;0.95;;
40649;SDS011;26342;42.826;23.992;2023-04-24T03:46:47;0.85;;;0.85;;
40649;SDS011;26342;42.826;23.992;2023-04-24T03:49:13;3.42;;;2.47;;
40649;SDS011;26342;42.826;23.992;2023-04-24T03:51:43;1.63;;;1.40;;
40649;SDS011;26342;42.826;23.992;2023-04-24T03:54:08;2.33;;;1.73;;
40649;SDS011;26342;42.826;23.992;2023-04-24T03:56:34;2.08;;;1.75;;
40649;SDS011;26342;42.826;23.992;2023-04-24T03:58:59;3.42;;;1.83;;
40649;SDS011;26342;42.826;23.992;2023-04-24T04:01:25;10.27;;;4.72;;
40649;SDS011;26342;42.826;23.992;2023-04-24T04:03:53;4.65;;;3.10;;
40649;SDS011;26342;42.826;23.992;2023-04-24T04:06:18;16.23;;;5.60;;
40649;SDS011;26342;42.826;23.992;2023-04-24T04:08:44;3.65;;;2.60;;
40649;SDS011;26342;42.826;23.992;2023-04-24T04:11:10;4.15;;;3.13;;
40649;SDS011;26342;42.826;23.992;2023-04-24T04:13:35;5.22;;;2.83;;
40649;SDS011;26342;42.826;23.992;2023-04-24T04:16:01;4.15;;;1.55;;
40649;SDS011;26342;42.826;23.992;2023-04-24T04:18:26;1.65;;;1.00;;
40649;SDS011;26342;42.826;23.992;2023-04-24T04:20:51;0.63;;;0.63;;
40649;SDS011;26342;42.826;23.992;2023-04-24T04:23:17;7.50;;;3.45;;
40649;SDS011;26342;42.826;23.992;2023-04-24T04:25:42;6.30;;;4.28;;
40649;SDS011;26342;42.826;23.992;2023-04-24T04:28:08;7.68;;;4.38;;
40649;SDS011;26342;42.826;23.992;2023-04-24T04:30:33;2.78;;;2.58;;
40649;SDS011;26342;42.826;23.992;2023-04-24T04:32:59;2.20;;;2.00;;
40649;SDS011;26342;42.826;23.992;2023-04-24T04:35:25;4.18;;;2.47;;
40649;SDS011;26342;42.826;23.992;2023-04-24T04:37:50;2.47;;;1.80;;
40649;SDS011;26342;42.826;23.992;2023-04-24T04:40:16;0.65;;;0.65;;
40649;SDS011;26342;42.826;23.992;2023-04-24T04:42:42;2.35;;;2.15;;
40649;SDS011;26342;42.826;23.992;2023-04-24T04:45:11;1.58;;;0.68;;
40649;SDS011;26342;42.826;23.992;2023-04-24T04:47:36;1.05;;;0.77;;
40649;SDS011;26342;42.826;23.992;2023-04-24T04:50:02;1.10;;;0.95;;
40649;SDS011;26342;42.826;23.992;2023-04-24T04:52:29;3.17;;;2.13;;
40649;SDS011;26342;42.826;23.992;2023-04-24T04:54:54;3.63;;;1.40;;
40649;SDS011;26342;42.826;23.992;2023-04-24T04:57:20;2.55;;;1.77;;
40649;SDS011;26342;42.826;23.992;2023-04-24T04:59:46;3.85;;;2.42;;
40649;SDS011;26342;42.826;23.992;2023-04-24T05:02:11;1.65;;;1.55;;
40649;SDS011;26342;42.826;23.992;2023-04-24T05:04:37;1.60;;;1.50;;
40649;SDS011;26342;42.826;23.992;2023-04-24T05:07:03;8.43;;;2.83;;
40649;SDS011;26342;42.826;23.992;2023-04-24T05:09:28;3.05;;;2.85;;
40649;SDS011;26342;42.826;23.992;2023-04-24T05:11:54;5.35;;;3.65;;
40649;SDS011;26342;42.826;23.992;2023-04-24T05:14:21;1.90;;;1.80;;
40649;SDS011;26342;42.826;23.992;2023-04-24T05:16:47;2.85;;;2.50;;
40649;SDS011;26342;42.826;23.992;2023-04-24T05:19:12;2.67;;;1.50;;
40649;SDS011;26342;42.826;23.992;2023-04-24T05:21:39;3.97;;;2.00;;
40649;SDS011;26342;42.826;23.992;2023-04-24T05:24:05;2.03;;;1.52;;
40649;SDS011;26342;42.826;23.992;2023-04-24T05:26:31;1.70;;;1.42;;
40649;SDS011;26342;42.826;23.992;2023-04-24T05:28:56;2.60;;;2.40;;
40649;SDS011;26342;42.826;23.992;2023-04-24T05:31:22;3.53;;;2.55;;
40649;SDS011;26342;42.826;23.992;2023-04-24T05:33:47;4.85;;;2.58;;
40649;SDS011;26342;42.826;23.992;2023-04-24T05:36:13;5.00;;;2.45;;
40649;SDS011;26342;42.826;23.992;2023-04-24T05:38:38;5.20;;;2.38;;
40649;SDS011;26342;42.826;23.992;2023-04-24T05:41:04;4.93;;;3.55;;
40649;SDS011;26342;42.826;23.992;2023-04-24T05:43:29;2.45;;;2.25;;
40649;SDS011;26342;42.826;23.992;2023-04-24T05:45:55;1.27;;;1.27;;
40649;SDS011;26342;42.826;23.992;2023-04-24T05:48:20;1.77;;;1.67;;
40649;SDS011;26342;42.826;23.992;2023-04-24T05:50:47;4.32;;;2.35;;
40649;SDS011;26342;42.826;23.992;2023-04-24T05:53:13;4.13;;;2.28;;
40649;SDS011;26342;42.826;23.992;2023-04-24T05:55:38;5.82;;;2.75;;
40649;SDS011;26342;42.826;23.992;2023-04-24T05:58:04;2.38;;;2.20;;
40649;SDS011;26342;42.826;23.992;2023-04-24T06:00:29;4.03;;;3.47;;
40649;SDS011;26342;42.826;23.992;2023-04-24T06:02:55;10.38;;;4.78;;
40649;SDS011;26342;42.826;23.992;2023-04-24T06:05:21;10.40;;;4.30;;
40649;SDS011;26342;42.826;23.992;2023-04-24T06:07:47;9.88;;;5.60;;
40649;SDS011;26342;42.826;23.992;2023-04-24T06:10:13;8.45;;;4.82;;
40649;SDS011;26342;42.826;23.992;2023-04-24T06:12:39;13.07;;;6.10;;
40649;SDS011;26342;42.826;23.992;2023-04-24T06:15:04;12.35;;;6.53;;
40649;SDS011;26342;42.826;23.992;2023-04-24T06:17:30;5.97;;;4.40;;
40649;SDS011;26342;42.826;23.992;2023-04-24T06:19:56;11.18;;;6.07;;
40649;SDS011;26342;42.826;23.992;2023-04-24T06:22:21;4.93;;;4.15;;
40649;SDS011;26342;42.826;23.992;2023-04-24T06:24:47;4.53;;;3.20;;
40649;SDS011;26342;42.826;23.992;2023-04-24T06:27:13;5.97;;;3.60;;
40649;SDS011;26342;42.826;23.992;2023-04-24T06:29:39;4.07;;;3.65;;
40649;SDS011;26342;42.826;23.992;2023-04-24T06:32:05;8.10;;;2.78;;
40649;SDS011;26342;42.826;23.992;2023-04-24T06:34:30;8.82;;;2.53;;
40649;SDS011;26342;42.826;23.992;2023-04-24T06:36:57;2.22;;;2.00;;
40649;SDS011;26342;42.826;23.992;2023-04-24T06:39:23;6.47;;;2.80;;
40649;SDS011;26342;42.826;23.992;2023-04-24T06:41:49;3.83;;;2.25;;
40649;SDS011;26342;42.826;23.992;2023-04-24T06:44:15;5.65;;;2.80;;
40649;SDS011;26342;42.826;23.992;2023-04-24T06:46:40;4.10;;;2.63;;
40649;SDS011;26342;42.826;23.992;2023-04-24T06:49:06;2.47;;;2.28;;
40649;SDS011;26342;42.826;23.992;2023-04-24T06:51:31;4.18;;;1.58;;
40649;SDS011;26342;42.826;23.992;2023-04-24T06:53:58;4.10;;;2.42;;
40649;SDS011;26342;42.826;23.992;2023-04-24T06:56:23;11.77;;;2.58;;
40649;SDS011;26342;42.826;23.992;2023-04-24T06:58:49;0.65;;;0.65;;
40649;SDS011;26342;42.826;23.992;2023-04-24T07:01:14;0.70;;;0.70;;
40649;SDS011;26342;42.826;23.992;2023-04-24T07:03:40;1.77;;;1.17;;
40649;SDS011;26342;42.826;23.992;2023-04-24T07:06:05;1.58;;;1.33;;
40649;SDS011;26342;42.826;23.992;2023-04-24T07:08:31;1.83;;;1.48;;
40649;SDS011;26342;42.826;23.992;2023-04-24T07:10:58;1.58;;;0.98;;
40649;SDS011;26342;42.826;23.992;2023-04-24T07:13:23;0.45;;;0.45;;
40649;SDS011;26342;42.826;23.992;2023-04-24T07:15:49;1.95;;;1.80;;
40649;SDS011;26342;42.826;23.992;2023-04-24T07:18:17;1.20;;;1.13;;
40649;SDS011;26342;42.826;23.992;2023-04-24T07:20:43;2.08;;;1.30;;
40649;SDS011;26342;42.826;23.992;2023-04-24T07:23:08;1.88;;;1.23;;
40649;SDS011;26342;42.826;23.992;2023-04-24T07:25:33;2.88;;;0.73;;
40649;SDS011;26342;42.826;23.992;2023-04-24T07:27:59;1.35;;;0.70;;
40649;SDS011;26342;42.826;23.992;2023-04-24T07:30:25;2.55;;;1.75;;
40649;SDS011;26342;42.826;23.992;2023-04-24T07:32:51;2.55;;;1.83;;
40649;SDS011;26342;42.826;23.992;2023-04-24T07:35:16;1.70;;;1.08;;
40649;SDS011;26342;42.826;23.992;2023-04-24T07:37:42;2.63;;;1.83;;
40649;SDS011;26342;42.826;23.992;2023-04-24T07:40:11;1.25;;;1.00;;
40649;SDS011;26342;42.826;23.992;2023-04-24T07:42:37;1.35;;;1.25;;
40649;SDS011;26342;42.826;23.992;2023-04-24T07:45:03;2.15;;;1.65;;
40649;SDS011;26342;42.826;23.992;2023-04-24T07:47:29;1.85;;;1.27;;
40649;SDS011;26342;42.826;23.992;2023-04-24T07:49:55;1.33;;;0.88;;
40649;SDS011;26342;42.826;23.992;2023-04-24T07:52:21;1.25;;;1.15;;
40649;SDS011;26342;42.826;23.992;2023-04-24T07:54:47;3.50;;;1.05;;
40649;SDS011;26342;42.826;23.992;2023-04-24T07:57:12;4.28;;;1.30;;
40649;SDS011;26342;42.826;23.992;2023-04-24T07:59:39;2.65;;;1.13;;
40649;SDS011;26342;42.826;23.992;2023-04-24T08:02:04;3.45;;;1.77;;
40649;SDS011;26342;42.826;23.992;2023-04-24T08:04:31;1.73;;;0.38;;
40649;SDS011;26342;42.826;23.992;2023-04-24T08:06:56;4.63;;;1.83;;
40649;SDS011;26342;42.826;23.992;2023-04-24T08:09:22;1.15;;;0.63;;
40649;SDS011;26342;42.826;23.992;2023-04-24T08:11:47;4.03;;;1.33;;
40649;SDS011;26342;42.826;23.992;2023-04-24T08:14:12;0.85;;;0.85;;
40649;SDS011;26342;42.826;23.992;2023-04-24T08:16:39;0.90;;;0.88;;
40649;SDS011;26342;42.826;23.992;2023-04-24T08:19:05;0.40;;;0.40;;
40649;SDS011;26342;42.826;23.992;2023-04-24T08:21:31;0.40;;;0.40;;
40649;SDS011;26342;42.826;23.992;2023-04-24T08:23:57;0.57;;;0.57;;
40649;SDS011;26342;42.826;23.992;2023-04-24T08:26:22;2.03;;;1.00;;
40649;SDS011;26342;42.826;23.992;2023-04-24T08:28:48;1.50;;;0.73;;
40649;SDS011;26342;42.826;23.992;2023-04-24T08:31:13;1.15;;;1.05;;
40649;SDS011;26342;42.826;23.992;2023-04-24T08:33:39;1.02;;;1.00;;
40649;SDS011;26342;42.826;23.992;2023-04-24T08:36:06;1.15;;;1.10;;
40649;SDS011;26342;42.826;23.992;2023-04-24T08:38:32;0.60;;;0.60;;
40649;SDS011;26342;42.826;23.992;2023-04-24T08:41:00;1.70;;;1.58;;
40649;SDS011;26342;42.826;23.992;2023-04-24T08:43:36;1.90;;;1.13;;
40649;SDS011;26342;42.826;23.992;2023-04-24T08:46:04;2.20;;;0.73;;
40649;SDS011;26342;42.826;23.992;2023-04-24T08:48:35;3.50;;;2.15;;
40649;SDS011;26342;42.826;23.992;2023-04-24T08:51:01;5.32;;;1.10;;
40649;SDS011;26342;42.826;23.992;2023-04-24T08:53:30;1.40;;;1.30;;
40649;SDS011;26342;42.826;23.992;2023-04-24T08:56:02;0.88;;;0.88;;
40649;SDS011;26342;42.826;23.992;2023-04-24T08:58:28;1.85;;;0.90;;
40649;SDS011;26342;42.826;23.992;2023-04-24T09:00:57;1.30;;;1.20;;
40649;SDS011;26342;42.826;23.992;2023-04-24T09:03:28;3.60;;;1.90;;
40649;SDS011;26342;42.826;23.992;2023-04-24T09:05:55;2.00;;;1.52;;
40649;SDS011;26342;42.826;23.992;2023-04-24T09:08:23;1.08;;;0.80;;
40649;SDS011;26342;42.826;23.992;2023-04-24T09:10:50;4.25;;;0.95;;
40649;SDS011;26342;42.826;23.992;2023-04-24T09:13:15;4.53;;;2.03;;
40649;SDS011;26342;42.826;23.992;2023-04-24T09:15:42;0.85;;;0.80;;
40649;SDS011;26342;42.826;23.992;2023-04-24T09:18:07;1.63;;;1.00;;
40649;SDS011;26342;42.826;23.992;2023-04-24T09:20:33;1.15;;;0.73;;
40649;SDS011;26342;42.826;23.992;2023-04-24T09:23:01;0.57;;;0.55;;
40649;SDS011;26342;42.826;23.992;2023-04-24T09:25:33;0.60;;;0.60;;
40649;SDS011;26342;42.826;23.992;2023-04-24T09:28:03;1.95;;;0.85;;
40649;SDS011;26342;42.826;23.992;2023-04-24T09:30:29;0.63;;;0.60;;
40649;SDS011;26342;42.826;23.992;2023-04-24T09:33:11;0.47;;;0.45;;
40649;SDS011;26342;42.826;23.992;2023-04-24T09:35:50;1.75;;;0.68;;
40649;SDS011;26342;42.826;23.992;2023-04-24T09:38:16;1.08;;;0.85;;
40649;SDS011;26342;42.826;23.992;2023-04-24T09:40:42;2.08;;;0.80;;
40649;SDS011;26342;42.826;23.992;2023-04-24T09:43:11;1.42;;;0.85;;
40649;SDS011;26342;42.826;23.992;2023-04-24T09:45:37;3.25;;;1.98;;
40649;SDS011;26342;42.826;23.992;2023-04-24T09:48:08;0.65;;;0.63;;
40649;SDS011;26342;42.826;23.992;2023-04-24T09:50:35;1.27;;;0.65;;
40649;SDS011;26342;42.826;23.992;2023-04-24T09:53:04;0.55;;;0.50;;
40649;SDS011;26342;42.826;23.992;2023-04-24T09:55:33;1.65;;;0.90;;
40649;SDS011;26342;42.826;23.992;2023-04-24T09:58:04;0.95;;;0.70;;
40649;SDS011;26342;42.826;23.992;2023-04-24T10:00:55;0.95;;;0.85;;
40649;SDS011;26342;42.826;23.992;2023-04-24T10:03:25;0.20;;;0.20;;
40649;SDS011;26342;42.826;23.992;2023-04-24T10:05:52;0.38;;;0.38;;
40649;SDS011;26342;42.826;23.992;2023-04-24T10:08:18;0.47;;;0.47;;
40649;SDS011;26342;42.826;23.992;2023-04-24T10:10:47;0.88;;;0.63;;
40649;SDS011;26342;42.826;23.992;2023-04-24T10:13:36;1.42;;;0.70;;
40649;SDS011;26342;42.826;23.992;2023-04-24T10:16:08;0.30;;;0.28;;
40649;SDS011;26342;42.826;23.992;2023-04-24T10:18:35;1.45;;;1.35;;
40649;SDS011;26342;42.826;23.992;2023-04-24T10:21:04;0.63;;;0.52;;
40649;SDS011;26342;42.826;23.992;2023-04-24T10:23:42;0.47;;;0.47;;
40649;SDS011;26342;42.826;23.992;2023-04-24T10:26:11;0.50;;;0.50;;
40649;SDS011;26342;42.826;23.992;2023-04-24T10:28:42;0.75;;;0.50;;
40649;SDS011;26342;42.826;23.992;2023-04-24T10:31:10;0.10;;;0.10;;
40649;SDS011;26342;42.826;23.992;2023-04-24T10:33:37;3.22;;;0.90;;
40649;SDS011;26342;42.826;23.992;2023-04-24T10:36:06;1.77;;;0.88;;
40649;SDS011;26342;42.826;23.992;2023-04-24T10:38:36;2.45;;;1.30;;
40649;SDS011;26342;42.826;23.992;2023-04-24T10:41:09;1.13;;;0.60;;
40649;SDS011;26342;42.826;23.992;2023-04-24T10:43:41;0.68;;;0.65;;
40649;SDS011;26342;42.826;23.992;2023-04-24T10:46:07;0.40;;;0.40;;
40649;SDS011;26342;42.826;23.992;2023-04-24T10:48:35;0.63;;;0.45;;
40649;SDS011;26342;42.826;23.992;2023-04-24T10:51:01;0.65;;;0.40;;
40649;SDS011;26342;42.826;23.992;2023-04-24T10:53:30;0.32;;;0.32;;
40649;SDS011;26342;42.826;23.992;2023-04-24T10:56:03;0.75;;;0.75;;
40649;SDS011;26342;42.826;23.992;2023-04-24T10:58:38;0.95;;;0.80;;
40649;SDS011;26342;42.826;23.992;2023-04-24T11:01:08;0.40;;;0.38;;
40649;SDS011;26342;42.826;23.992;2023-04-24T11:03:34;0.65;;;0.45;;
40649;SDS011;26342;42.826;23.992;2023-04-24T11:06:05;1.65;;;0.30;;
40649;SDS011;26342;42.826;23.992;2023-04-24T11:08:37;0.93;;;0.90;;
40649;SDS011;26342;42.826;23.992;2023-04-24T11:11:08;0.68;;;0.68;;
40649;SDS011;26342;42.826;23.992;2023-04-24T11:20:00;1.55;;;0.77;;
40649;SDS011;26342;42.826;23.992;2023-04-24T11:22:33;0.38;;;0.38;;
40649;SDS011;26342;42.826;23.992;2023-04-24T11:25:04;0.20;;;0.20;;
40649;SDS011;26342;42.826;23.992;2023-04-24T11:27:39;0.82;;;0.40;;
40649;SDS011;26342;42.826;23.992;2023-04-24T11:30:06;0.65;;;0.57;;
40649;SDS011;26342;42.826;23.992;2023-04-24T11:37:42;7.32;;;0.50;;
40649;SDS011;26342;42.826;23.992;2023-04-24T11:40:16;0.88;;;0.63;;
40649;SDS011;26342;42.826;23.992;2023-04-24T11:42:44;0.63;;;0.63;;
40649;SDS011;26342;42.826;23.992;2023-04-24T11:45:13;0.98;;;0.70;;
40649;SDS011;26342;42.826;23.992;2023-04-24T11:47:44;0.65;;;0.40;;
40649;SDS011;26342;42.826;23.992;2023-04-24T11:50:14;0.98;;;0.70;;
40649;SDS011;26342;42.826;23.992;2023-04-24T11:52:53;0.52;;;0.35;;
40649;SDS011;26342;42.826;23.992;2023-04-24T12:00:28;5.15;;;0.70;;
40649;SDS011;26342;42.826;23.992;2023-04-24T12:05:31;0.52;;;0.50;;
40649;SDS011;26342;42.826;23.992;2023-04-24T12:07:56;0.85;;;0.60;;
40649;SDS011;26342;42.826;23.992;2023-04-24T12:10:23;0.60;;;0.50;;
40649;SDS011;26342;42.826;23.992;2023-04-24T12:13:24;1.80;;;0.75;;
40649;SDS011;26342;42.826;23.992;2023-04-24T12:16:08;0.47;;;0.47;;
40649;SDS011;26342;42.826;23.992;2023-04-24T12:18:34;0.80;;;0.75;;
40649;SDS011;26342;42.826;23.992;2023-04-24T12:21:21;1.00;;;0.60;;
40649;SDS011;26342;42.826;23.992;2023-04-24T12:26:31;1.02;;;0.63;;
40649;SDS011;26342;42.826;23.992;2023-04-24T12:29:00;0.63;;;0.63;;
40649;SDS011;26342;42.826;23.992;2023-04-24T12:31:29;1.07;;;0.90;;
40649;SDS011;26342;42.826;23.992;2023-04-24T12:33:55;1.05;;;0.50;;
40649;SDS011;26342;42.826;23.992;2023-04-24T12:36:21;0.73;;;0.73;;
40649;SDS011;26342;42.826;23.992;2023-04-24T12:38:46;2.28;;;1.35;;
40649;SDS011;26342;42.826;23.992;2023-04-24T12:41:18;0.95;;;0.77;;
40649;SDS011;26342;42.826;23.992;2023-04-24T12:43:53;14.30;;;1.20;;
40649;SDS011;26342;42.826;23.992;2023-04-24T12:46:20;0.65;;;0.43;;
40649;SDS011;26342;42.826;23.992;2023-04-24T12:48:45;0.85;;;0.85;;
40649;SDS011;26342;42.826;23.992;2023-04-24T12:51:14;0.55;;;0.43;;
40649;SDS011;26342;42.826;23.992;2023-04-24T12:53:39;2.85;;;1.33;;
40649;SDS011;26342;42.826;23.992;2023-04-24T12:56:05;0.88;;;0.82;;
40649;SDS011;26342;42.826;23.992;2023-04-24T12:58:36;1.65;;;1.00;;
40649;SDS011;26342;42.826;23.992;2023-04-24T13:01:01;3.50;;;2.08;;
40649;SDS011;26342;42.826;23.992;2023-04-24T13:03:27;1.85;;;0.82;;
40649;SDS011;26342;42.826;23.992;2023-04-24T13:05:52;1.83;;;1.65;;
40649;SDS011;26342;42.826;23.992;2023-04-24T13:08:18;4.20;;;3.05;;
40649;SDS011;26342;42.826;23.992;2023-04-24T13:10:43;4.68;;;2.38;;
40649;SDS011;26342;42.826;23.992;2023-04-24T13:13:09;4.65;;;2.40;;
40649;SDS011;26342;42.826;23.992;2023-04-24T13:15:34;2.00;;;1.75;;
40649;SDS011;26342;42.826;23.992;2023-04-24T13:18:00;2.10;;;1.60;;
40649;SDS011;26342;42.826;23.992;2023-04-24T13:20:26;1.42;;;1.33;;
40649;SDS011;26342;42.826;23.992;2023-04-24T13:22:51;1.42;;;0.77;;
40649;SDS011;26342;42.826;23.992;2023-04-24T13:25:18;1.80;;;1.60;;
40649;SDS011;26342;42.826;23.992;2023-04-24T13:27:45;0.93;;;0.90;;
40649;SDS011;26342;42.826;23.992;2023-04-24T13:30:10;0.75;;;0.63;;
40649;SDS011;26342;42.826;23.992;2023-04-24T13:32:36;0.45;;;0.45;;
40649;SDS011;26342;42.826;23.992;2023-04-24T13:35:02;0.85;;;0.60;;
40649;SDS011;26342;42.826;23.992;2023-04-24T13:37:27;1.02;;;1.00;;
40649;SDS011;26342;42.826;23.992;2023-04-24T13:39:53;0.77;;;0.75;;
40649;SDS011;26342;42.826;23.992;2023-04-24T13:42:18;0.70;;;0.30;;
40649;SDS011;26342;42.826;23.992;2023-04-24T13:44:44;0.43;;;0.43;;
40649;SDS011;26342;42.826;23.992;2023-04-24T13:47:10;1.20;;;0.73;;
40649;SDS011;26342;42.826;23.992;2023-04-24T13:49:36;2.55;;;0.85;;
40649;SDS011;26342;42.826;23.992;2023-04-24T13:52:02;3.85;;;1.25;;
40649;SDS011;26342;42.826;23.992;2023-04-24T13:54:27;2.55;;;1.90;;
40649;SDS011;26342;42.826;23.992;2023-04-24T13:56:53;3.08;;;2.80;;
40649;SDS011;26342;42.826;23.992;2023-04-24T13:59:19;2.08;;;1.55;;
40649;SDS011;26342;42.826;23.992;2023-04-24T14:01:46;3.42;;;1.75;;
40649;SDS011;26342;42.826;23.992;2023-04-24T14:04:12;4.82;;;2.45;;
40649;SDS011;26342;42.826;23.992;2023-04-24T14:06:38;2.05;;;1.70;;
40649;SDS011;26342;42.826;23.992;2023-04-24T14:09:03;1.38;;;1.27;;
40649;SDS011;26342;42.826;23.992;2023-04-24T14:11:29;0.75;;;0.43;;
40649;SDS011;26342;42.826;23.992;2023-04-24T14:13:54;1.67;;;1.23;;
40649;SDS011;26342;42.826;23.992;2023-04-24T14:16:23;1.08;;;0.98;;
40649;SDS011;26342;42.826;23.992;2023-04-24T14:18:50;2.15;;;1.73;;
40649;SDS011;26342;42.826;23.992;2023-04-24T14:21:15;3.80;;;2.45;;
40649;SDS011;26342;42.826;23.992;2023-04-24T14:23:41;2.08;;;1.73;;
40649;SDS011;26342;42.826;23.992;2023-04-24T14:26:06;1.42;;;1.33;;
40649;SDS011;26342;42.826;23.992;2023-04-24T14:28:32;2.40;;;2.03;;
40649;SDS011;26342;42.826;23.992;2023-04-24T14:30:57;2.80;;;1.67;;
40649;SDS011;26342;42.826;23.992;2023-04-24T14:33:25;2.33;;;2.03;;
40649;SDS011;26342;42.826;23.992;2023-04-24T14:35:51;4.57;;;2.05;;
40649;SDS011;26342;42.826;23.992;2023-04-24T14:38:16;3.83;;;1.92;;
40649;SDS011;26342;42.826;23.992;2023-04-24T14:40:42;3.17;;;1.95;;
40649;SDS011;26342;42.826;23.992;2023-04-24T14:43:07;1.67;;;1.45;;
40649;SDS011;26342;42.826;23.992;2023-04-24T14:45:32;0.70;;;0.45;;
40649;SDS011;26342;42.826;23.992;2023-04-24T14:47:58;1.23;;;0.85;;
40649;SDS011;26342;42.826;23.992;2023-04-24T14:50:23;1.70;;;1.58;;
40649;SDS011;26342;42.826;23.992;2023-04-24T14:52:52;4.53;;;2.97;;
40649;SDS011;26342;42.826;23.992;2023-04-24T14:55:18;0.82;;;0.82;;